createdAt,value
2022-08-24T00:01:54.872Z,43.60
2022-08-24T00:04:21.037Z,43.60
2022-08-24T00:06:47.143Z,43.60
2022-08-24T00:09:13.248Z,43.70
2022-08-24T00:11:39.380Z,43.60
2022-08-24T00:14:06.236Z,43.60
2022-08-24T00:16:32.402Z,43.60
2022-08-24T00:18:59.978Z,43.60
2022-08-24T00:21:26.523Z,43.60
2022-08-24T00:23:53.236Z,43.60
2022-08-24T00:26:28.503Z,43.70
2022-08-24T00:28:55.815Z,43.60
2022-08-24T00:31:21.986Z,43.70
2022-08-24T00:33:48.181Z,43.70
2022-08-24T00:36:14.481Z,43.70
2022-08-24T00:38:40.598Z,43.70
2022-08-24T00:41:06.707Z,43.70
2022-08-24T00:43:33.058Z,43.70
2022-08-24T00:46:17.993Z,43.70
2022-08-24T00:48:47.578Z,43.60
2022-08-24T00:51:20.256Z,43.70
2022-08-24T00:53:51.017Z,43.60
2022-08-24T00:56:41.178Z,43.60
2022-08-24T00:59:11.593Z,43.70
2022-08-24T01:01:38.586Z,43.80
2022-08-24T01:04:07.620Z,43.60
2022-08-24T01:06:33.843Z,43.70
2022-08-24T01:09:00.101Z,43.60
2022-08-24T01:11:33.834Z,43.70
2022-08-24T01:14:02.602Z,43.80
2022-08-24T01:16:47.661Z,43.80
2022-08-24T01:19:34.863Z,43.70
2022-08-24T01:22:34.182Z,43.70
2022-08-24T01:25:01.112Z,43.70
2022-08-24T01:27:28.686Z,43.60
2022-08-24T01:29:56.761Z,43.80
2022-08-24T01:32:27.174Z,43.80
2022-08-24T01:34:54.578Z,43.60
2022-08-24T01:37:20.950Z,43.70
2022-08-24T01:39:49.833Z,43.80
2022-08-24T01:42:16.604Z,43.80
2022-08-24T01:44:44.999Z,43.70
2022-08-24T01:47:13.835Z,43.70
2022-08-24T01:49:46.388Z,43.80
2022-08-24T01:52:17.279Z,43.70
2022-08-24T01:54:43.736Z,43.80
2022-08-24T01:57:10.486Z,43.80
2022-08-24T01:59:42.023Z,43.80
2022-08-24T02:02:21.019Z,43.80
2022-08-24T02:04:47.475Z,43.80
2022-08-24T02:07:14.312Z,43.70
2022-08-24T02:09:40.633Z,43.80
2022-08-24T02:12:07.621Z,43.80
2022-08-24T02:14:35.114Z,43.80
2022-08-24T02:17:03.739Z,43.80
2022-08-24T02:19:30.008Z,43.80
2022-08-24T02:21:56.106Z,43.80
2022-08-24T02:24:22.914Z,43.80
2022-08-24T02:26:49.035Z,43.80
2022-08-24T02:29:15.682Z,43.80
2022-08-24T02:31:41.778Z,43.80
2022-08-24T02:34:08.478Z,43.80
2022-08-24T02:36:34.870Z,43.80
2022-08-24T02:39:01.073Z,43.80
2022-08-24T02:41:27.604Z,43.70
2022-08-24T02:43:55.038Z,43.80
2022-08-24T02:46:24.713Z,43.80
2022-08-24T02:48:57.437Z,43.80
2022-08-24T02:51:43.956Z,43.80
2022-08-24T02:54:12.418Z,43.80
2022-08-24T02:56:39.023Z,43.80
2022-08-24T02:59:05.161Z,43.80
2022-08-24T03:01:31.390Z,43.80
2022-08-24T03:03:57.751Z,43.80
2022-08-24T03:06:24.139Z,43.80
2022-08-24T03:08:56.310Z,43.80
2022-08-24T03:11:27.708Z,43.80
2022-08-24T03:13:55.658Z,43.80
2022-08-24T03:16:22.282Z,43.80
2022-08-24T03:18:48.990Z,43.80
2022-08-24T03:21:15.606Z,43.80
2022-08-24T03:23:41.739Z,43.80
2022-08-24T03:26:07.991Z,43.80
2022-08-24T03:28:34.114Z,43.80
2022-08-24T03:31:00.986Z,43.90
2022-08-24T03:33:27.102Z,43.90
2022-08-24T03:35:54.595Z,43.90
2022-08-24T03:38:20.795Z,43.90
2022-08-24T03:40:47.284Z,43.90
2022-08-24T03:43:33.410Z,43.90
2022-08-24T03:46:02.030Z,43.90
2022-08-24T03:48:29.439Z,43.90
2022-08-24T03:50:56.380Z,44.00
2022-08-24T03:53:22.804Z,44.00
2022-08-24T03:55:48.989Z,43.90
2022-08-24T03:58:15.099Z,43.90
2022-08-24T04:00:42.238Z,43.90
2022-08-24T04:03:09.727Z,43.90
2022-08-24T04:05:36.823Z,44.00
2022-08-24T04:08:04.330Z,44.00
2022-08-24T04:10:31.500Z,44.00
2022-08-24T04:12:59.199Z,44.00
2022-08-24T04:15:27.682Z,44.00
2022-08-24T04:17:53.796Z,44.00
2022-08-24T04:20:19.978Z,44.00
2022-08-24T04:22:46.127Z,44.00
2022-08-24T04:25:12.886Z,44.00
2022-08-24T04:27:40.398Z,44.00
2022-08-24T04:30:07.331Z,44.00
2022-08-24T04:32:34.610Z,44.00
2022-08-24T04:35:00.930Z,44.00
2022-08-24T04:37:27.945Z,44.00
2022-08-24T04:39:55.568Z,43.90
2022-08-24T04:42:21.696Z,44.00
2022-08-24T04:44:48.017Z,44.00
2022-08-24T04:47:14.117Z,44.00
2022-08-24T04:49:40.217Z,44.00
2022-08-24T04:52:07.877Z,44.00
2022-08-24T04:54:34.521Z,44.00
2022-08-24T04:57:00.654Z,44.00
2022-08-24T04:59:26.758Z,44.10
2022-08-24T05:01:52.930Z,44.10
2022-08-24T05:04:19.062Z,44.00
2022-08-24T05:06:45.582Z,44.10
2022-08-24T05:09:11.693Z,44.30
2022-08-24T05:11:41.277Z,44.50
2022-08-24T05:14:15.727Z,44.70
2022-08-24T05:16:45.861Z,44.90
2022-08-24T05:19:19.079Z,44.80
2022-08-24T05:21:45.680Z,45.00
2022-08-24T05:24:11.795Z,45.00
2022-08-24T05:26:38.477Z,45.10
2022-08-24T05:29:05.014Z,45.20
2022-08-24T05:31:32.674Z,45.50
2022-08-24T05:34:00.603Z,45.50
2022-08-24T05:36:29.961Z,45.70
2022-08-24T05:38:57.785Z,45.80
2022-08-24T05:41:24.094Z,45.90
2022-08-24T05:43:50.705Z,46.00
2022-08-24T05:46:17.012Z,45.90
2022-08-24T05:48:52.561Z,45.90
2022-08-24T05:51:20.392Z,46.00
2022-08-24T05:53:46.713Z,46.00
2022-08-24T05:56:14.969Z,46.00
2022-08-24T05:58:41.250Z,46.10
2022-08-24T06:01:09.670Z,46.10
2022-08-24T06:03:36.962Z,46.10
2022-08-24T06:06:03.977Z,46.20
2022-08-24T06:08:30.546Z,46.40
2022-08-24T06:10:57.187Z,46.50
2022-08-24T06:13:23.453Z,46.50
2022-08-24T06:16:05.026Z,46.50
2022-08-24T06:18:36.191Z,46.50
2022-08-24T06:21:08.487Z,46.60
2022-08-24T06:23:35.762Z,46.60
2022-08-24T06:26:23.348Z,46.60
2022-08-24T06:28:49.651Z,46.80
2022-08-24T06:31:16.099Z,46.70
2022-08-24T06:33:42.303Z,46.80
2022-08-24T06:36:08.478Z,46.80
2022-08-24T06:38:35.399Z,46.80
2022-08-24T06:41:01.584Z,47.10
2022-08-24T06:43:27.745Z,47.20
2022-08-24T06:45:55.445Z,47.30
2022-08-24T06:48:22.386Z,47.30
2022-08-24T06:50:49.762Z,47.10
2022-08-24T06:53:16.745Z,48.00
2022-08-24T06:55:57.531Z,47.40
2022-08-24T06:58:26.906Z,47.40
2022-08-24T07:00:54.503Z,47.50
2022-08-24T07:03:22.017Z,47.30
2022-08-24T07:05:52.813Z,47.20
2022-08-24T07:08:19.890Z,47.20
2022-08-24T07:10:46.345Z,47.20
2022-08-24T07:13:13.943Z,47.30
2022-08-24T07:15:43.372Z,47.30
2022-08-24T07:18:14.291Z,47.50
2022-08-24T07:20:41.965Z,47.70
2022-08-24T07:23:08.210Z,47.80
2022-08-24T07:25:35.110Z,47.90
2022-08-24T07:28:01.659Z,48.00
2022-08-24T07:30:28.253Z,48.00
2022-08-24T07:32:56.467Z,48.10
2022-08-24T07:35:23.705Z,48.10
2022-08-24T07:37:49.804Z,48.10
2022-08-24T07:40:18.901Z,48.20
2022-08-24T07:42:49.505Z,48.10
2022-08-24T07:45:15.796Z,48.10
2022-08-24T07:47:50.850Z,47.90
2022-08-24T07:50:21.341Z,47.90
2022-08-24T07:52:47.581Z,47.90
2022-08-24T07:55:14.763Z,48.00
2022-08-24T07:57:44.455Z,47.90
2022-08-24T08:00:13.816Z,48.10
2022-08-24T08:02:42.412Z,48.00
2022-08-24T08:05:09.803Z,48.10
2022-08-24T08:07:36.433Z,48.10
2022-08-24T08:10:03.721Z,48.10
2022-08-24T08:12:29.859Z,48.10
2022-08-24T08:14:57.063Z,48.10
2022-08-24T08:17:23.629Z,48.10
2022-08-24T08:19:50.001Z,48.10
2022-08-24T08:22:34.646Z,48.10
2022-08-24T08:25:00.910Z,48.10
2022-08-24T08:27:27.087Z,48.10
2022-08-24T08:29:53.186Z,48.10
2022-08-24T08:32:19.529Z,48.20
2022-08-24T08:34:46.262Z,48.20
2022-08-24T08:37:13.554Z,48.20
2022-08-24T08:39:40.184Z,48.20
2022-08-24T08:42:27.180Z,48.30
2022-08-24T08:45:06.486Z,48.40
2022-08-24T08:47:57.187Z,48.40
2022-08-24T08:50:23.282Z,48.40
2022-08-24T08:53:22.451Z,48.50
2022-08-24T08:55:58.406Z,48.50
2022-08-24T08:59:02.700Z,48.50
2022-08-24T09:01:47.148Z,48.60
2022-08-24T09:04:25.822Z,48.60
2022-08-24T09:07:04.130Z,48.70
2022-08-24T09:09:51.774Z,48.70
2022-08-24T09:12:38.697Z,48.70
2022-08-24T09:15:14.130Z,48.80
2022-08-24T09:18:06.564Z,49.50
2022-08-24T09:21:11.878Z,48.80
2022-08-24T09:23:56.027Z,48.90
2022-08-24T09:26:32.736Z,49.00
2022-08-24T09:29:15.821Z,49.10
2022-08-24T09:31:47.362Z,49.00
2022-08-24T09:34:25.642Z,49.10
2022-08-24T09:37:17.653Z,49.10
2022-08-24T09:40:22.285Z,49.10
2022-08-24T09:43:07.328Z,49.20
2022-08-24T09:46:21.488Z,49.20
2022-08-24T09:49:14.424Z,49.20
2022-08-24T09:51:43.520Z,49.30
2022-08-24T09:54:37.962Z,49.30
2022-08-24T10:00:38.298Z,49.40
2022-08-24T10:03:37.758Z,49.40
2022-08-24T10:06:11.647Z,49.40
2022-08-24T10:09:09.590Z,49.40
2022-08-24T10:11:48.068Z,49.40
2022-08-24T10:14:48.175Z,49.40
2022-08-24T10:17:26.160Z,49.50
2022-08-24T10:20:16.098Z,49.50
2022-08-24T10:22:54.326Z,49.40
2022-08-24T10:25:44.153Z,49.40
2022-08-24T10:28:56.077Z,49.40
2022-08-24T10:31:38.058Z,49.40
2022-08-24T10:34:48.797Z,49.40
2022-08-24T10:37:42.568Z,49.50
2022-08-24T10:40:16.459Z,49.40
2022-08-24T10:43:27.185Z,49.50
2022-08-24T10:46:18.394Z,49.50
2022-08-24T10:48:47.526Z,49.50
2022-08-24T10:51:35.469Z,49.50
2022-08-24T10:54:03.133Z,49.50
2022-08-24T10:56:41.259Z,49.60
2022-08-24T10:59:30.561Z,49.60
2022-08-24T11:02:09.627Z,49.60
2022-08-24T11:04:39.721Z,49.70
2022-08-24T11:07:19.837Z,49.70
2022-08-24T11:09:52.688Z,49.70
2022-08-24T11:12:35.922Z,49.70
2022-08-24T11:15:05.222Z,49.80
2022-08-24T11:17:32.590Z,49.80
2022-08-24T11:19:58.933Z,49.80
2022-08-24T11:22:40.291Z,49.90
2022-08-24T11:25:15.849Z,49.90
2022-08-24T11:27:48.147Z,50.00
2022-08-24T11:30:26.966Z,49.90
2022-08-24T11:33:00.563Z,50.00
2022-08-24T11:35:36.719Z,50.00
2022-08-24T11:38:20.176Z,50.00
2022-08-24T11:41:12.649Z,50.00
2022-08-24T11:43:53.773Z,50.00
2022-08-24T11:46:32.306Z,50.00
2022-08-24T11:49:29.121Z,50.00
2022-08-24T11:51:58.528Z,50.10
2022-08-24T11:54:38.122Z,50.00
2022-08-24T11:57:25.154Z,50.10
2022-08-24T12:00:01.362Z,50.00
2022-08-24T12:02:44.085Z,50.00
2022-08-24T12:05:19.746Z,50.00
2022-08-24T12:07:52.111Z,49.90
2022-08-24T12:10:43.595Z,49.90
2022-08-24T12:13:35.508Z,50.00
2022-08-24T12:16:27.388Z,49.90
2022-08-24T12:19:00.069Z,49.90
2022-08-24T12:21:31.547Z,49.90
2022-08-24T12:24:09.479Z,50.00
2022-08-24T12:27:01.954Z,50.00
2022-08-24T12:29:50.981Z,50.00
2022-08-24T12:32:27.386Z,50.00
2022-08-24T12:35:08.358Z,50.00
2022-08-24T12:37:51.412Z,50.60
2022-08-24T12:40:26.653Z,49.90
2022-08-24T12:42:59.140Z,49.90
2022-08-24T12:45:25.358Z,49.90
2022-08-24T12:48:16.727Z,49.90
2022-08-24T12:51:08.475Z,49.90
2022-08-24T12:54:11.998Z,49.90
2022-08-24T12:56:54.741Z,49.90
2022-08-24T12:59:33.601Z,49.90
2022-08-24T13:02:07.460Z,49.90
2022-08-24T13:04:39.608Z,49.90
2022-08-24T13:07:29.203Z,49.90
2022-08-24T13:09:55.241Z,49.90
2022-08-24T13:12:30.436Z,50.00
2022-08-24T13:15:22.253Z,49.90
2022-08-24T13:18:02.631Z,49.90
2022-08-24T13:20:35.549Z,49.90
2022-08-24T13:23:10.695Z,49.90
2022-08-24T13:26:16.965Z,49.90
2022-08-24T13:28:54.313Z,49.90
2022-08-24T13:31:33.457Z,49.90
2022-08-24T13:34:21.430Z,49.80
2022-08-24T13:37:15.793Z,49.80
2022-08-24T13:40:01.089Z,49.80
2022-08-24T13:43:28.039Z,49.80
2022-08-24T13:46:01.402Z,49.80
2022-08-24T13:49:08.361Z,49.80
2022-08-24T13:51:47.808Z,49.90
2022-08-24T13:54:28.892Z,49.80
2022-08-24T13:57:01.595Z,49.90
2022-08-24T14:00:09.538Z,49.80
2022-08-24T14:02:59.523Z,49.70
2022-08-24T14:05:52.067Z,49.80
2022-08-24T14:09:02.045Z,49.70
2022-08-24T14:11:57.231Z,49.70
2022-08-24T14:15:01.009Z,49.70
2022-08-24T14:18:08.677Z,49.70
2022-08-24T14:20:58.033Z,49.70
2022-08-24T14:23:58.487Z,49.70
2022-08-24T14:26:37.399Z,49.70
2022-08-24T14:29:18.254Z,49.60
2022-08-24T14:32:01.441Z,49.60
2022-08-24T14:35:21.515Z,49.60
2022-08-24T14:37:59.248Z,49.60
2022-08-24T14:40:25.650Z,49.60
2022-08-24T14:42:56.734Z,49.50
2022-08-24T14:45:37.071Z,49.50
2022-08-24T14:48:24.229Z,49.40
2022-08-24T14:50:50.286Z,49.50
2022-08-24T14:53:31.192Z,49.50
2022-08-24T14:56:16.334Z,49.40
2022-08-24T14:58:42.798Z,49.40
2022-08-24T15:01:41.204Z,49.40
2022-08-24T15:04:37.086Z,49.40
2022-08-24T15:07:21.287Z,49.40
2022-08-24T15:09:47.652Z,49.40
2022-08-24T15:12:32.879Z,49.40
2022-08-24T15:15:09.662Z,49.40
2022-08-24T15:17:58.756Z,49.40
2022-08-24T15:20:41.710Z,49.40
2022-08-24T15:23:23.783Z,49.50
2022-08-24T15:26:06.153Z,49.40
2022-08-24T15:28:33.354Z,49.40
2022-08-24T15:31:06.372Z,49.40
2022-08-24T15:33:33.201Z,49.40
2022-08-24T15:36:16.071Z,49.40
2022-08-24T15:38:43.202Z,49.40
2022-08-24T15:41:13.989Z,49.40
2022-08-24T15:43:46.356Z,49.40
2022-08-24T15:46:17.316Z,49.40
2022-08-24T15:48:47.325Z,49.40
2022-08-24T15:51:42.136Z,49.40
2022-08-24T15:54:24.786Z,49.40
2022-08-24T15:56:56.762Z,49.40
2022-08-24T15:59:46.742Z,49.40
2022-08-24T16:02:33.292Z,49.40
2022-08-24T16:05:01.404Z,49.40
2022-08-24T16:07:56.219Z,49.40
2022-08-24T16:10:38.482Z,49.30
2022-08-24T16:13:12.269Z,49.30
2022-08-24T16:15:56.486Z,49.30
2022-08-24T16:18:26.737Z,49.30
2022-08-24T16:20:57.123Z,49.30
2022-08-24T16:23:26.762Z,49.30
2022-08-24T16:26:25.873Z,49.30
2022-08-24T16:28:53.211Z,49.30
2022-08-24T16:31:40.865Z,49.30
2022-08-24T16:34:20.855Z,49.30
2022-08-24T16:36:47.742Z,49.30
2022-08-24T16:39:13.969Z,49.30
2022-08-24T16:41:41.470Z,49.30
2022-08-24T16:44:10.030Z,49.30
2022-08-24T16:46:37.524Z,49.20
2022-08-24T16:49:04.001Z,49.30
2022-08-24T16:51:35.170Z,49.20
2022-08-24T16:54:05.163Z,49.20
2022-08-24T16:56:31.435Z,49.20
2022-08-24T16:58:58.409Z,49.30
2022-08-24T17:01:24.603Z,49.30
2022-08-24T17:03:51.480Z,49.20
2022-08-24T17:06:18.651Z,49.10
2022-08-24T17:08:46.845Z,49.00
2022-08-24T17:11:13.976Z,48.90
2022-08-24T17:13:56.184Z,48.90
2022-08-24T17:16:22.354Z,48.80
2022-08-24T17:18:48.703Z,48.80
2022-08-24T17:21:14.977Z,48.80
2022-08-24T17:23:42.503Z,48.70
2022-08-24T17:26:12.001Z,48.70
2022-08-24T17:28:47.579Z,48.60
2022-08-24T17:31:14.693Z,48.60
2022-08-24T17:33:41.715Z,48.60
2022-08-24T17:36:15.284Z,48.70
2022-08-24T17:38:51.707Z,48.60
2022-08-24T17:41:22.978Z,48.60
2022-08-24T17:43:49.175Z,48.50
2022-08-24T17:46:16.536Z,48.40
2022-08-24T17:48:44.566Z,48.50
2022-08-24T17:51:10.884Z,48.50
2022-08-24T17:53:37.026Z,48.50
2022-08-24T17:56:05.302Z,48.50
2022-08-24T17:58:31.461Z,48.30
2022-08-24T18:00:57.830Z,48.40
2022-08-24T18:03:24.199Z,48.30
2022-08-24T18:05:50.306Z,48.40
2022-08-24T18:08:16.478Z,48.30
2022-08-24T18:10:42.612Z,48.20
2022-08-24T18:13:09.850Z,48.20
2022-08-24T18:15:36.426Z,48.30
2022-08-24T18:18:08.619Z,48.30
2022-08-24T18:20:38.115Z,48.30
2022-08-24T18:23:04.330Z,48.30
2022-08-24T18:25:35.210Z,48.30
2022-08-24T18:28:01.998Z,48.30
2022-08-24T18:30:30.794Z,48.20
2022-08-24T18:33:01.015Z,48.20
2022-08-24T18:35:27.589Z,48.10
2022-08-24T18:37:53.678Z,48.20
2022-08-24T18:40:21.284Z,48.20
2022-08-24T18:42:49.871Z,48.20
2022-08-24T18:45:15.994Z,48.10
2022-08-24T18:47:42.086Z,48.10
2022-08-24T18:50:08.666Z,48.10
2022-08-24T18:52:40.407Z,48.10
2022-08-24T18:55:09.158Z,48.10
2022-08-24T18:57:35.441Z,48.00
2022-08-24T19:00:03.465Z,48.10
2022-08-24T19:02:29.830Z,48.10
2022-08-24T19:05:19.470Z,48.00
2022-08-24T19:07:49.293Z,48.00
2022-08-24T19:10:21.456Z,48.00
2022-08-24T19:12:51.775Z,48.10
2022-08-24T19:15:32.080Z,48.00
2022-08-24T19:18:05.631Z,48.00
2022-08-24T19:20:33.095Z,48.00
2022-08-24T19:23:06.429Z,48.00
2022-08-24T19:25:34.544Z,48.00
2022-08-24T19:28:01.123Z,47.90
2022-08-24T19:30:27.481Z,47.90
2022-08-24T19:32:57.385Z,48.10
2022-08-24T19:35:23.728Z,47.90
2022-08-24T19:37:49.866Z,47.90
2022-08-24T19:40:17.368Z,47.90
2022-08-24T19:42:43.903Z,48.00
2022-08-24T19:45:31.197Z,48.00
2022-08-24T19:47:57.329Z,47.90
2022-08-24T19:50:26.034Z,47.90
2022-08-24T19:52:57.406Z,47.90
2022-08-24T19:55:23.915Z,47.90
2022-08-24T19:57:55.065Z,47.90
2022-08-24T20:00:50.545Z,47.90
2022-08-24T20:03:17.992Z,48.00
2022-08-24T20:05:44.153Z,47.90
2022-08-24T20:08:10.378Z,48.60
2022-08-24T20:10:37.136Z,48.00
2022-08-24T20:13:03.663Z,48.10
2022-08-24T20:15:31.381Z,48.00
2022-08-24T20:17:58.442Z,48.00
2022-08-24T20:20:27.129Z,47.90
2022-08-24T20:22:53.911Z,48.00
2022-08-24T20:25:20.174Z,48.70
2022-08-24T20:27:47.622Z,48.00
2022-08-24T20:30:15.396Z,47.90
2022-08-24T20:32:41.737Z,47.90
2022-08-24T20:35:08.663Z,48.00
2022-08-24T20:37:34.852Z,48.00
2022-08-24T20:40:02.532Z,48.00
2022-08-24T20:42:30.959Z,47.90
2022-08-24T20:44:59.016Z,47.90
2022-08-24T20:47:25.256Z,48.00
2022-08-24T20:49:51.518Z,47.90
2022-08-24T20:52:17.963Z,47.90
2022-08-24T20:54:44.352Z,47.90
2022-08-24T20:57:13.466Z,47.90
2022-08-24T20:59:39.654Z,47.90
2022-08-24T21:02:05.793Z,48.00
2022-08-24T21:04:31.886Z,47.90
2022-08-24T21:06:57.989Z,47.90
2022-08-24T21:09:24.400Z,47.90
2022-08-24T21:11:50.992Z,48.00
2022-08-24T21:14:17.720Z,47.90
2022-08-24T21:16:44.403Z,48.00
2022-08-24T21:19:16.701Z,47.90
2022-08-24T21:21:44.443Z,47.90
2022-08-24T21:24:10.691Z,47.90
2022-08-24T21:26:37.200Z,47.90
2022-08-24T21:29:06.127Z,47.90
2022-08-24T21:31:32.862Z,47.90
2022-08-24T21:34:17.661Z,47.90
2022-08-24T21:36:44.367Z,47.90
2022-08-24T21:39:11.218Z,47.90
2022-08-24T21:41:38.723Z,47.90
2022-08-24T21:44:05.094Z,47.90
2022-08-24T21:46:34.206Z,47.90
2022-08-24T21:49:01.043Z,47.90
2022-08-24T21:51:27.999Z,47.90
2022-08-24T21:53:59.417Z,47.90
2022-08-24T21:56:29.667Z,47.90
2022-08-24T21:58:55.766Z,47.90
2022-08-24T22:01:22.066Z,47.90
2022-08-24T22:03:48.649Z,48.00
2022-08-24T22:06:15.095Z,47.90
2022-08-24T22:08:42.744Z,47.90
2022-08-24T22:11:10.834Z,47.90
2022-08-24T22:13:37.767Z,47.90
2022-08-24T22:16:05.678Z,47.90
2022-08-24T22:18:32.357Z,47.90
2022-08-24T22:20:59.122Z,47.90
2022-08-24T22:23:25.311Z,47.80
2022-08-24T22:25:52.805Z,47.90
2022-08-24T22:28:20.258Z,47.90
2022-08-24T22:30:47.605Z,47.80
2022-08-24T22:33:15.225Z,47.90
2022-08-24T22:35:45.179Z,47.90
2022-08-24T22:38:11.995Z,47.90
2022-08-24T22:40:38.181Z,47.80
2022-08-24T22:43:04.651Z,47.90
2022-08-24T22:45:30.945Z,47.90
2022-08-24T22:47:57.734Z,47.90
2022-08-24T22:50:24.010Z,47.90
2022-08-24T22:52:50.142Z,47.90
2022-08-24T22:55:16.355Z,47.80
2022-08-24T22:57:42.461Z,47.90
2022-08-24T23:00:16.872Z,47.90
2022-08-24T23:02:43.370Z,47.90
2022-08-24T23:05:09.938Z,47.90
2022-08-24T23:07:36.205Z,47.90
2022-08-24T23:10:05.248Z,47.80
2022-08-24T23:12:32.414Z,47.90
2022-08-24T23:14:58.548Z,47.80
2022-08-24T23:17:24.728Z,47.90
2022-08-24T23:19:59.850Z,47.90
2022-08-24T23:22:28.425Z,47.90
2022-08-24T23:24:55.741Z,47.90
2022-08-24T23:27:22.017Z,47.90
2022-08-24T23:29:48.780Z,47.90
2022-08-24T23:32:17.749Z,47.90
2022-08-24T23:34:45.941Z,47.90
2022-08-24T23:37:12.069Z,47.90
2022-08-24T23:39:38.223Z,47.90
2022-08-24T23:42:05.594Z,47.90
2022-08-24T23:44:32.955Z,47.90
2022-08-24T23:46:59.534Z,47.90
2022-08-24T23:49:27.878Z,47.90
2022-08-24T23:51:54.130Z,48.60
2022-08-24T23:54:21.210Z,47.90
2022-08-24T23:56:49.111Z,47.90
2022-08-24T23:59:20.178Z,47.90
